sensor_id;sensor_type;location;lat;lon;timestamp;P1;durP1;ratioP1;P2;durP2;ratioP2
59310;SDS011;45078;51.654;21.250;2023-06-26T00:00:53;16.00;;;8.95;;
59310;SDS011;45078;51.654;21.250;2023-06-26T00:03:19;14.95;;;8.52;;
59310;SDS011;45078;51.654;21.250;2023-06-26T00:05:44;15.38;;;8.80;;
59310;SDS011;45078;51.654;21.250;2023-06-26T00:08:10;12.43;;;7.57;;
59310;SDS011;45078;51.654;21.250;2023-06-26T00:10:36;12.50;;;8.18;;
59310;SDS011;45078;51.654;21.250;2023-06-26T00:13:02;13.77;;;8.68;;
59310;SDS011;45078;51.654;21.250;2023-06-26T00:15:28;11.95;;;6.95;;
59310;SDS011;45078;51.654;21.250;2023-06-26T00:17:56;16.25;;;8.48;;
59310;SDS011;45078;51.654;21.250;2023-06-26T00:20:23;16.35;;;10.88;;
59310;SDS011;45078;51.654;21.250;2023-06-26T00:22:50;14.82;;;9.80;;
59310;SDS011;45078;51.654;21.250;2023-06-26T00:25:16;16.45;;;8.63;;
59310;SDS011;45078;51.654;21.250;2023-06-26T00:27:41;17.90;;;9.80;;
59310;SDS011;45078;51.654;21.250;2023-06-26T00:30:07;14.05;;;8.68;;
59310;SDS011;45078;51.654;21.250;2023-06-26T00:32:34;12.38;;;7.88;;
59310;SDS011;45078;51.654;21.250;2023-06-26T00:34:59;14.77;;;7.85;;
59310;SDS011;45078;51.654;21.250;2023-06-26T00:37:25;13.38;;;9.20;;
59310;SDS011;45078;51.654;21.250;2023-06-26T00:39:51;13.35;;;8.48;;
59310;SDS011;45078;51.654;21.250;2023-06-26T00:42:17;14.38;;;8.45;;
59310;SDS011;45078;51.654;21.250;2023-06-26T00:44:42;13.20;;;8.57;;
59310;SDS011;45078;51.654;21.250;2023-06-26T00:47:09;18.90;;;8.45;;
59310;SDS011;45078;51.654;21.250;2023-06-26T00:49:36;16.02;;;8.63;;
59310;SDS011;45078;51.654;21.250;2023-06-26T00:52:02;15.30;;;8.90;;
59310;SDS011;45078;51.654;21.250;2023-06-26T00:54:28;14.05;;;8.93;;
59310;SDS011;45078;51.654;21.250;2023-06-26T00:56:54;14.50;;;8.40;;
59310;SDS011;45078;51.654;21.250;2023-06-26T00:59:20;13.48;;;8.20;;
59310;SDS011;45078;51.654;21.250;2023-06-26T01:01:45;12.95;;;7.75;;
59310;SDS011;45078;51.654;21.250;2023-06-26T01:04:11;14.70;;;8.43;;
59310;SDS011;45078;51.654;21.250;2023-06-26T01:06:43;13.23;;;8.45;;
59310;SDS011;45078;51.654;21.250;2023-06-26T01:09:19;13.68;;;8.15;;
59310;SDS011;45078;51.654;21.250;2023-06-26T01:11:46;12.55;;;8.48;;
59310;SDS011;45078;51.654;21.250;2023-06-26T01:14:12;13.93;;;8.05;;
59310;SDS011;45078;51.654;21.250;2023-06-26T01:16:38;13.07;;;8.73;;
59310;SDS011;45078;51.654;21.250;2023-06-26T01:19:27;13.48;;;8.98;;
59310;SDS011;45078;51.654;21.250;2023-06-26T01:24:42;14.32;;;8.25;;
59310;SDS011;45078;51.654;21.250;2023-06-26T01:27:18;14.02;;;8.25;;
59310;SDS011;45078;51.654;21.250;2023-06-26T01:29:47;15.60;;;8.88;;
59310;SDS011;45078;51.654;21.250;2023-06-26T01:32:15;15.35;;;8.93;;
59310;SDS011;45078;51.654;21.250;2023-06-26T01:34:41;13.68;;;8.73;;
59310;SDS011;45078;51.654;21.250;2023-06-26T01:37:08;13.68;;;8.40;;
59310;SDS011;45078;51.654;21.250;2023-06-26T01:39:34;15.77;;;7.82;;
59310;SDS011;45078;51.654;21.250;2023-06-26T01:42:00;13.55;;;8.40;;
59310;SDS011;45078;51.654;21.250;2023-06-26T01:44:27;12.95;;;8.27;;
59310;SDS011;45078;51.654;21.250;2023-06-26T01:47:01;16.08;;;8.43;;
59310;SDS011;45078;51.654;21.250;2023-06-26T01:50:11;11.20;;;7.75;;
59310;SDS011;45078;51.654;21.250;2023-06-26T01:52:23;13.88;;;7.95;;
59310;SDS011;45078;51.654;21.250;2023-06-26T01:54:58;12.57;;;8.15;;
59310;SDS011;45078;51.654;21.250;2023-06-26T01:57:34;13.35;;;7.75;;
59310;SDS011;45078;51.654;21.250;2023-06-26T02:00:02;11.23;;;7.10;;
59310;SDS011;45078;51.654;21.250;2023-06-26T02:02:29;12.35;;;7.97;;
59310;SDS011;45078;51.654;21.250;2023-06-26T02:04:55;14.50;;;7.10;;
59310;SDS011;45078;51.654;21.250;2023-06-26T02:07:21;11.85;;;7.25;;
59310;SDS011;45078;51.654;21.250;2023-06-26T02:09:47;13.55;;;7.85;;
59310;SDS011;45078;51.654;21.250;2023-06-26T02:12:13;14.50;;;7.97;;
59310;SDS011;45078;51.654;21.250;2023-06-26T02:14:38;10.93;;;7.32;;
59310;SDS011;45078;51.654;21.250;2023-06-26T02:17:04;11.48;;;7.28;;
59310;SDS011;45078;51.654;21.250;2023-06-26T02:19:30;14.93;;;7.95;;
59310;SDS011;45078;51.654;21.250;2023-06-26T02:21:55;10.32;;;6.78;;
59310;SDS011;45078;51.654;21.250;2023-06-26T02:24:21;10.63;;;7.22;;
59310;SDS011;45078;51.654;21.250;2023-06-26T02:26:47;11.38;;;7.28;;
59310;SDS011;45078;51.654;21.250;2023-06-26T02:29:14;14.63;;;7.28;;
59310;SDS011;45078;51.654;21.250;2023-06-26T02:31:40;12.20;;;7.35;;
59310;SDS011;45078;51.654;21.250;2023-06-26T02:34:06;10.93;;;7.43;;
59310;SDS011;45078;51.654;21.250;2023-06-26T02:36:32;17.65;;;8.07;;
59310;SDS011;45078;51.654;21.250;2023-06-26T02:38:57;12.98;;;8.38;;
59310;SDS011;45078;51.654;21.250;2023-06-26T02:41:23;10.23;;;6.97;;
59310;SDS011;45078;51.654;21.250;2023-06-26T02:43:49;10.95;;;7.38;;
59310;SDS011;45078;51.654;21.250;2023-06-26T02:46:14;10.68;;;7.45;;
59310;SDS011;45078;51.654;21.250;2023-06-26T02:48:40;12.50;;;7.38;;
59310;SDS011;45078;51.654;21.250;2023-06-26T02:51:07;15.27;;;7.43;;
59310;SDS011;45078;51.654;21.250;2023-06-26T02:53:33;12.15;;;7.43;;
59310;SDS011;45078;51.654;21.250;2023-06-26T02:55:59;11.05;;;7.30;;
59310;SDS011;45078;51.654;21.250;2023-06-26T02:58:24;12.20;;;7.40;;
59310;SDS011;45078;51.654;21.250;2023-06-26T03:00:50;11.30;;;7.65;;
59310;SDS011;45078;51.654;21.250;2023-06-26T03:03:16;12.50;;;7.68;;
59310;SDS011;45078;51.654;21.250;2023-06-26T03:05:42;12.90;;;7.22;;
59310;SDS011;45078;51.654;21.250;2023-06-26T03:08:08;13.30;;;7.10;;
59310;SDS011;45078;51.654;21.250;2023-06-26T03:10:34;13.68;;;8.32;;
59310;SDS011;45078;51.654;21.250;2023-06-26T03:12:59;13.85;;;7.75;;
59310;SDS011;45078;51.654;21.250;2023-06-26T03:15:25;14.75;;;8.07;;
59310;SDS011;45078;51.654;21.250;2023-06-26T03:17:51;14.48;;;8.20;;
59310;SDS011;45078;51.654;21.250;2023-06-26T03:20:16;10.27;;;7.00;;
59310;SDS011;45078;51.654;21.250;2023-06-26T03:22:42;13.68;;;8.60;;
59310;SDS011;45078;51.654;21.250;2023-06-26T03:25:08;12.55;;;8.45;;
59310;SDS011;45078;51.654;21.250;2023-06-26T03:27:34;14.60;;;8.13;;
59310;SDS011;45078;51.654;21.250;2023-06-26T03:29:59;12.18;;;7.50;;
59310;SDS011;45078;51.654;21.250;2023-06-26T03:32:25;14.10;;;8.07;;
59310;SDS011;45078;51.654;21.250;2023-06-26T03:34:51;13.40;;;8.50;;
59310;SDS011;45078;51.654;21.250;2023-06-26T03:37:18;15.00;;;8.90;;
59310;SDS011;45078;51.654;21.250;2023-06-26T03:39:44;15.85;;;8.65;;
59310;SDS011;45078;51.654;21.250;2023-06-26T03:42:09;12.18;;;7.57;;
59310;SDS011;45078;51.654;21.250;2023-06-26T03:44:35;14.82;;;8.60;;
59310;SDS011;45078;51.654;21.250;2023-06-26T03:47:01;16.13;;;9.00;;
59310;SDS011;45078;51.654;21.250;2023-06-26T03:49:27;15.40;;;8.40;;
59310;SDS011;45078;51.654;21.250;2023-06-26T03:51:53;18.10;;;8.57;;
59310;SDS011;45078;51.654;21.250;2023-06-26T03:54:18;14.85;;;7.95;;
59310;SDS011;45078;51.654;21.250;2023-06-26T03:56:44;16.23;;;7.90;;
59310;SDS011;45078;51.654;21.250;2023-06-26T03:59:10;16.58;;;8.57;;
59310;SDS011;45078;51.654;21.250;2023-06-26T04:01:36;12.00;;;7.95;;
59310;SDS011;45078;51.654;21.250;2023-06-26T04:04:02;12.32;;;8.20;;
59310;SDS011;45078;51.654;21.250;2023-06-26T04:06:28;12.68;;;7.78;;
59310;SDS011;45078;51.654;21.250;2023-06-26T04:08:56;16.42;;;7.82;;
59310;SDS011;45078;51.654;21.250;2023-06-26T04:11:22;12.45;;;7.78;;
59310;SDS011;45078;51.654;21.250;2023-06-26T04:13:49;12.88;;;7.75;;
59310;SDS011;45078;51.654;21.250;2023-06-26T04:16:14;12.45;;;7.97;;
59310;SDS011;45078;51.654;21.250;2023-06-26T04:18:41;13.73;;;8.13;;
59310;SDS011;45078;51.654;21.250;2023-06-26T04:21:10;14.35;;;7.45;;
59310;SDS011;45078;51.654;21.250;2023-06-26T04:23:38;11.82;;;7.28;;
59310;SDS011;45078;51.654;21.250;2023-06-26T04:26:05;12.38;;;7.20;;
59310;SDS011;45078;51.654;21.250;2023-06-26T04:28:31;11.80;;;7.22;;
59310;SDS011;45078;51.654;21.250;2023-06-26T04:31:03;12.20;;;7.68;;
59310;SDS011;45078;51.654;21.250;2023-06-26T04:33:29;10.85;;;6.80;;
59310;SDS011;45078;51.654;21.250;2023-06-26T04:35:55;12.65;;;7.40;;
59310;SDS011;45078;51.654;21.250;2023-06-26T04:54:55;12.50;;;7.10;;
59310;SDS011;45078;51.654;21.250;2023-06-26T04:57:21;11.82;;;6.80;;
59310;SDS011;45078;51.654;21.250;2023-06-26T04:59:46;9.70;;;6.47;;
59310;SDS011;45078;51.654;21.250;2023-06-26T05:02:12;9.90;;;6.72;;
59310;SDS011;45078;51.654;21.250;2023-06-26T05:04:39;14.95;;;7.25;;
59310;SDS011;45078;51.654;21.250;2023-06-26T05:07:07;10.10;;;6.80;;
59310;SDS011;45078;51.654;21.250;2023-06-26T05:09:33;10.40;;;6.70;;
59310;SDS011;45078;51.654;21.250;2023-06-26T05:11:58;12.23;;;7.03;;
59310;SDS011;45078;51.654;21.250;2023-06-26T05:14:24;10.43;;;6.45;;
59310;SDS011;45078;51.654;21.250;2023-06-26T05:16:50;10.68;;;7.13;;
59310;SDS011;45078;51.654;21.250;2023-06-26T05:19:16;9.50;;;6.72;;
59310;SDS011;45078;51.654;21.250;2023-06-26T05:21:42;9.13;;;6.72;;
59310;SDS011;45078;51.654;21.250;2023-06-26T05:24:08;11.77;;;6.88;;
59310;SDS011;45078;51.654;21.250;2023-06-26T05:26:34;11.02;;;6.68;;
59310;SDS011;45078;51.654;21.250;2023-06-26T05:29:00;10.93;;;6.50;;
59310;SDS011;45078;51.654;21.250;2023-06-26T05:31:26;12.63;;;7.55;;
59310;SDS011;45078;51.654;21.250;2023-06-26T05:33:52;11.23;;;7.13;;
59310;SDS011;45078;51.654;21.250;2023-06-26T05:36:20;15.73;;;6.60;;
59310;SDS011;45078;51.654;21.250;2023-06-26T05:38:49;10.27;;;6.47;;
59310;SDS011;45078;51.654;21.250;2023-06-26T05:41:15;11.70;;;6.72;;
59310;SDS011;45078;51.654;21.250;2023-06-26T05:43:41;9.52;;;6.40;;
59310;SDS011;45078;51.654;21.250;2023-06-26T05:46:07;15.05;;;7.00;;
59310;SDS011;45078;51.654;21.250;2023-06-26T05:48:32;9.82;;;6.53;;
59310;SDS011;45078;51.654;21.250;2023-06-26T05:50:58;9.90;;;6.43;;
59310;SDS011;45078;51.654;21.250;2023-06-26T05:53:24;8.80;;;6.10;;
59310;SDS011;45078;51.654;21.250;2023-06-26T05:55:50;10.43;;;6.30;;
59310;SDS011;45078;51.654;21.250;2023-06-26T05:58:16;12.00;;;6.68;;
59310;SDS011;45078;51.654;21.250;2023-06-26T06:00:45;11.85;;;6.47;;
59310;SDS011;45078;51.654;21.250;2023-06-26T06:03:11;10.05;;;6.13;;
59310;SDS011;45078;51.654;21.250;2023-06-26T06:05:37;9.35;;;6.22;;
59310;SDS011;45078;51.654;21.250;2023-06-26T06:08:03;12.35;;;5.70;;
59310;SDS011;45078;51.654;21.250;2023-06-26T06:10:29;11.95;;;6.00;;
59310;SDS011;45078;51.654;21.250;2023-06-26T06:12:54;7.07;;;5.03;;
59310;SDS011;45078;51.654;21.250;2023-06-26T06:15:20;8.82;;;5.32;;
59310;SDS011;45078;51.654;21.250;2023-06-26T06:17:46;7.40;;;4.38;;
59310;SDS011;45078;51.654;21.250;2023-06-26T06:20:11;9.38;;;4.72;;
59310;SDS011;45078;51.654;21.250;2023-06-26T06:22:37;7.00;;;4.88;;
59310;SDS011;45078;51.654;21.250;2023-06-26T06:25:03;8.60;;;4.55;;
59310;SDS011;45078;51.654;21.250;2023-06-26T06:27:29;7.85;;;4.95;;
59310;SDS011;45078;51.654;21.250;2023-06-26T06:29:56;8.05;;;5.45;;
59310;SDS011;45078;51.654;21.250;2023-06-26T06:32:22;8.77;;;5.20;;
59310;SDS011;45078;51.654;21.250;2023-06-26T06:34:47;8.70;;;5.03;;
59310;SDS011;45078;51.654;21.250;2023-06-26T06:37:13;8.35;;;4.53;;
59310;SDS011;45078;51.654;21.250;2023-06-26T06:39:39;6.50;;;4.57;;
59310;SDS011;45078;51.654;21.250;2023-06-26T06:42:05;7.10;;;4.20;;
59310;SDS011;45078;51.654;21.250;2023-06-26T06:44:31;8.65;;;4.55;;
59310;SDS011;45078;51.654;21.250;2023-06-26T06:46:56;7.65;;;4.70;;
59310;SDS011;45078;51.654;21.250;2023-06-26T06:49:22;6.45;;;4.25;;
59310;SDS011;45078;51.654;21.250;2023-06-26T06:51:48;7.18;;;4.50;;
59310;SDS011;45078;51.654;21.250;2023-06-26T06:54:15;5.72;;;4.22;;
59310;SDS011;45078;51.654;21.250;2023-06-26T06:56:42;7.18;;;3.97;;
59310;SDS011;45078;51.654;21.250;2023-06-26T06:59:08;6.43;;;4.15;;
59310;SDS011;45078;51.654;21.250;2023-06-26T07:01:33;6.60;;;4.40;;
59310;SDS011;45078;51.654;21.250;2023-06-26T07:03:59;6.43;;;3.65;;
59310;SDS011;45078;51.654;21.250;2023-06-26T07:06:25;6.18;;;3.75;;
59310;SDS011;45078;51.654;21.250;2023-06-26T07:08:51;5.47;;;3.80;;
59310;SDS011;45078;51.654;21.250;2023-06-26T07:11:16;7.05;;;3.95;;
59310;SDS011;45078;51.654;21.250;2023-06-26T07:13:42;8.23;;;3.92;;
59310;SDS011;45078;51.654;21.250;2023-06-26T07:16:08;5.43;;;3.83;;
59310;SDS011;45078;51.654;21.250;2023-06-26T07:18:37;8.48;;;4.00;;
59310;SDS011;45078;51.654;21.250;2023-06-26T07:21:03;5.88;;;4.00;;
59310;SDS011;45078;51.654;21.250;2023-06-26T07:23:29;6.35;;;4.18;;
59310;SDS011;45078;51.654;21.250;2023-06-26T07:25:55;9.88;;;3.58;;
59310;SDS011;45078;51.654;21.250;2023-06-26T07:28:21;6.00;;;4.00;;
59310;SDS011;45078;51.654;21.250;2023-06-26T07:30:46;5.80;;;3.70;;
59310;SDS011;45078;51.654;21.250;2023-06-26T07:33:12;5.70;;;3.95;;
59310;SDS011;45078;51.654;21.250;2023-06-26T07:35:38;5.97;;;4.00;;
59310;SDS011;45078;51.654;21.250;2023-06-26T07:38:04;8.27;;;3.95;;
59310;SDS011;45078;51.654;21.250;2023-06-26T07:40:29;7.22;;;3.53;;
59310;SDS011;45078;51.654;21.250;2023-06-26T07:42:55;6.88;;;3.80;;
59310;SDS011;45078;51.654;21.250;2023-06-26T07:45:23;10.02;;;3.70;;
59310;SDS011;45078;51.654;21.250;2023-06-26T07:47:49;5.72;;;3.35;;
59310;SDS011;45078;51.654;21.250;2023-06-26T07:50:14;5.25;;;3.45;;
59310;SDS011;45078;51.654;21.250;2023-06-26T07:52:46;5.28;;;3.28;;
59310;SDS011;45078;51.654;21.250;2023-06-26T07:55:12;5.40;;;3.10;;
59310;SDS011;45078;51.654;21.250;2023-06-26T07:57:37;4.18;;;2.90;;
59310;SDS011;45078;51.654;21.250;2023-06-26T08:00:03;4.60;;;3.10;;
59310;SDS011;45078;51.654;21.250;2023-06-26T08:02:31;5.70;;;3.47;;
59310;SDS011;45078;51.654;21.250;2023-06-26T08:04:57;4.38;;;3.42;;
59310;SDS011;45078;51.654;21.250;2023-06-26T08:07:23;6.28;;;3.03;;
59310;SDS011;45078;51.654;21.250;2023-06-26T08:09:48;4.60;;;2.67;;
59310;SDS011;45078;51.654;21.250;2023-06-26T08:12:14;5.20;;;3.40;;
59310;SDS011;45078;51.654;21.250;2023-06-26T08:14:40;4.53;;;3.03;;
59310;SDS011;45078;51.654;21.250;2023-06-26T08:17:05;4.03;;;2.80;;
59310;SDS011;45078;51.654;21.250;2023-06-26T08:19:31;4.78;;;2.72;;
59310;SDS011;45078;51.654;21.250;2023-06-26T08:21:57;6.15;;;2.67;;
59310;SDS011;45078;51.654;21.250;2023-06-26T08:24:23;3.80;;;2.58;;
59310;SDS011;45078;51.654;21.250;2023-06-26T08:26:48;3.88;;;2.83;;
59310;SDS011;45078;51.654;21.250;2023-06-26T08:29:14;5.97;;;3.13;;
59310;SDS011;45078;51.654;21.250;2023-06-26T08:31:40;4.53;;;2.75;;
59310;SDS011;45078;51.654;21.250;2023-06-26T08:34:06;3.90;;;2.60;;
59310;SDS011;45078;51.654;21.250;2023-06-26T08:36:33;3.75;;;2.65;;
59310;SDS011;45078;51.654;21.250;2023-06-26T08:38:58;4.85;;;3.13;;
59310;SDS011;45078;51.654;21.250;2023-06-26T08:41:24;3.50;;;2.58;;
59310;SDS011;45078;51.654;21.250;2023-06-26T08:43:50;6.10;;;3.05;;
59310;SDS011;45078;51.654;21.250;2023-06-26T08:46:17;4.43;;;2.92;;
59310;SDS011;45078;51.654;21.250;2023-06-26T08:48:47;5.18;;;3.00;;
59310;SDS011;45078;51.654;21.250;2023-06-26T08:51:17;5.53;;;2.90;;
59310;SDS011;45078;51.654;21.250;2023-06-26T08:53:59;5.03;;;2.95;;
59310;SDS011;45078;51.654;21.250;2023-06-26T08:56:33;4.22;;;2.78;;
59310;SDS011;45078;51.654;21.250;2023-06-26T08:59:05;6.30;;;3.53;;
59310;SDS011;45078;51.654;21.250;2023-06-26T09:01:32;8.20;;;2.88;;
59310;SDS011;45078;51.654;21.250;2023-06-26T09:03:58;4.07;;;2.83;;
59310;SDS011;45078;51.654;21.250;2023-06-26T09:06:24;8.27;;;3.33;;
59310;SDS011;45078;51.654;21.250;2023-06-26T09:08:49;6.03;;;3.17;;
59310;SDS011;45078;51.654;21.250;2023-06-26T09:11:15;5.65;;;2.95;;
59310;SDS011;45078;51.654;21.250;2023-06-26T09:13:41;9.38;;;3.22;;
59310;SDS011;45078;51.654;21.250;2023-06-26T09:16:08;5.97;;;3.10;;
59310;SDS011;45078;51.654;21.250;2023-06-26T09:18:34;4.68;;;3.03;;
59310;SDS011;45078;51.654;21.250;2023-06-26T09:21:04;4.82;;;2.97;;
59310;SDS011;45078;51.654;21.250;2023-06-26T09:23:32;5.43;;;3.40;;
59310;SDS011;45078;51.654;21.250;2023-06-26T09:25:59;4.20;;;2.70;;
59310;SDS011;45078;51.654;21.250;2023-06-26T09:28:28;4.60;;;3.33;;
59310;SDS011;45078;51.654;21.250;2023-06-26T09:30:54;5.13;;;3.03;;
59310;SDS011;45078;51.654;21.250;2023-06-26T09:33:20;4.40;;;3.00;;
59310;SDS011;45078;51.654;21.250;2023-06-26T09:35:46;5.20;;;2.90;;
59310;SDS011;45078;51.654;21.250;2023-06-26T09:38:13;6.30;;;2.90;;
59310;SDS011;45078;51.654;21.250;2023-06-26T09:40:43;4.53;;;2.88;;
59310;SDS011;45078;51.654;21.250;2023-06-26T09:43:09;4.85;;;3.08;;
59310;SDS011;45078;51.654;21.250;2023-06-26T09:45:39;6.05;;;3.00;;
59310;SDS011;45078;51.654;21.250;2023-06-26T09:48:05;5.22;;;3.17;;
59310;SDS011;45078;51.654;21.250;2023-06-26T09:50:33;4.22;;;2.42;;
59310;SDS011;45078;51.654;21.250;2023-06-26T09:53:09;3.33;;;2.30;;
59310;SDS011;45078;51.654;21.250;2023-06-26T09:55:36;3.42;;;2.45;;
59310;SDS011;45078;51.654;21.250;2023-06-26T09:58:02;7.90;;;2.65;;
59310;SDS011;45078;51.654;21.250;2023-06-26T10:00:32;3.53;;;2.50;;
59310;SDS011;45078;51.654;21.250;2023-06-26T10:02:58;5.28;;;3.10;;
59310;SDS011;45078;51.654;21.250;2023-06-26T10:05:25;5.28;;;2.80;;
59310;SDS011;45078;51.654;21.250;2023-06-26T10:07:52;4.00;;;2.70;;
59310;SDS011;45078;51.654;21.250;2023-06-26T10:10:18;6.43;;;2.55;;
59310;SDS011;45078;51.654;21.250;2023-06-26T10:12:46;6.32;;;3.42;;
59310;SDS011;45078;51.654;21.250;2023-06-26T10:15:16;4.15;;;2.72;;
59310;SDS011;45078;51.654;21.250;2023-06-26T10:17:44;3.78;;;2.63;;
59310;SDS011;45078;51.654;21.250;2023-06-26T10:20:12;3.85;;;2.80;;
59310;SDS011;45078;51.654;21.250;2023-06-26T10:22:41;4.13;;;2.90;;
59310;SDS011;45078;51.654;21.250;2023-06-26T10:25:10;4.35;;;2.70;;
59310;SDS011;45078;51.654;21.250;2023-06-26T10:27:40;4.35;;;2.75;;
59310;SDS011;45078;51.654;21.250;2023-06-26T10:30:12;3.93;;;2.83;;
59310;SDS011;45078;51.654;21.250;2023-06-26T10:32:41;6.50;;;2.42;;
59310;SDS011;45078;51.654;21.250;2023-06-26T10:35:07;4.70;;;3.10;;
59310;SDS011;45078;51.654;21.250;2023-06-26T10:37:41;4.75;;;2.67;;
59310;SDS011;45078;51.654;21.250;2023-06-26T10:40:10;4.80;;;2.90;;
59310;SDS011;45078;51.654;21.250;2023-06-26T10:42:37;4.25;;;2.80;;
59310;SDS011;45078;51.654;21.250;2023-06-26T10:45:18;4.18;;;2.42;;
59310;SDS011;45078;51.654;21.250;2023-06-26T10:47:45;8.18;;;2.55;;
59310;SDS011;45078;51.654;21.250;2023-06-26T10:50:16;5.07;;;2.30;;
59310;SDS011;45078;51.654;21.250;2023-06-26T10:52:44;3.90;;;2.45;;
59310;SDS011;45078;51.654;21.250;2023-06-26T10:55:09;3.90;;;2.40;;
59310;SDS011;45078;51.654;21.250;2023-06-26T10:57:35;3.47;;;2.28;;
59310;SDS011;45078;51.654;21.250;2023-06-26T11:00:09;5.10;;;2.55;;
59310;SDS011;45078;51.654;21.250;2023-06-26T11:02:48;3.90;;;2.53;;
59310;SDS011;45078;51.654;21.250;2023-06-26T11:05:32;5.47;;;2.50;;
59310;SDS011;45078;51.654;21.250;2023-06-26T11:08:10;3.35;;;2.42;;
59310;SDS011;45078;51.654;21.250;2023-06-26T11:10:54;4.45;;;2.50;;
59310;SDS011;45078;51.654;21.250;2023-06-26T11:13:25;3.63;;;2.70;;
59310;SDS011;45078;51.654;21.250;2023-06-26T11:15:51;4.22;;;2.15;;
59310;SDS011;45078;51.654;21.250;2023-06-26T11:18:17;5.47;;;2.67;;
59310;SDS011;45078;51.654;21.250;2023-06-26T11:20:43;4.05;;;2.47;;
59310;SDS011;45078;51.654;21.250;2023-06-26T11:23:09;4.13;;;2.88;;
59310;SDS011;45078;51.654;21.250;2023-06-26T11:25:36;11.30;;;2.58;;
59310;SDS011;45078;51.654;21.250;2023-06-26T11:28:03;4.18;;;2.60;;
59310;SDS011;45078;51.654;21.250;2023-06-26T11:30:30;4.55;;;2.35;;
59310;SDS011;45078;51.654;21.250;2023-06-26T11:33:03;3.53;;;2.22;;
59310;SDS011;45078;51.654;21.250;2023-06-26T11:35:33;4.35;;;3.05;;
59310;SDS011;45078;51.654;21.250;2023-06-26T11:38:00;4.53;;;2.40;;
59310;SDS011;45078;51.654;21.250;2023-06-26T11:40:29;6.63;;;2.42;;
59310;SDS011;45078;51.654;21.250;2023-06-26T11:42:58;3.72;;;2.33;;
59310;SDS011;45078;51.654;21.250;2023-06-26T11:45:25;4.15;;;2.33;;
59310;SDS011;45078;51.654;21.250;2023-06-26T11:47:54;6.90;;;2.60;;
59310;SDS011;45078;51.654;21.250;2023-06-26T11:50:21;4.13;;;2.45;;
59310;SDS011;45078;51.654;21.250;2023-06-26T11:52:57;4.57;;;2.67;;
59310;SDS011;45078;51.654;21.250;2023-06-26T11:55:24;3.67;;;2.45;;
59310;SDS011;45078;51.654;21.250;2023-06-26T11:57:52;4.65;;;2.75;;
59310;SDS011;45078;51.654;21.250;2023-06-26T12:00:19;7.50;;;2.92;;
59310;SDS011;45078;51.654;21.250;2023-06-26T12:02:46;4.03;;;2.88;;
59310;SDS011;45078;51.654;21.250;2023-06-26T12:05:15;3.72;;;2.38;;
59310;SDS011;45078;51.654;21.250;2023-06-26T12:07:46;5.00;;;2.70;;
59310;SDS011;45078;51.654;21.250;2023-06-26T12:10:13;4.85;;;2.70;;
59310;SDS011;45078;51.654;21.250;2023-06-26T12:12:41;3.55;;;2.45;;
59310;SDS011;45078;51.654;21.250;2023-06-26T12:15:07;5.07;;;2.70;;
59310;SDS011;45078;51.654;21.250;2023-06-26T12:17:37;3.70;;;2.42;;
59310;SDS011;45078;51.654;21.250;2023-06-26T12:20:17;3.63;;;2.80;;
59310;SDS011;45078;51.654;21.250;2023-06-26T12:22:45;3.47;;;2.50;;
59310;SDS011;45078;51.654;21.250;2023-06-26T12:25:12;6.15;;;3.08;;
59310;SDS011;45078;51.654;21.250;2023-06-26T12:27:38;5.60;;;2.67;;
59310;SDS011;45078;51.654;21.250;2023-06-26T12:30:04;4.05;;;2.72;;
59310;SDS011;45078;51.654;21.250;2023-06-26T12:32:30;5.75;;;2.80;;
59310;SDS011;45078;51.654;21.250;2023-06-26T12:34:57;5.68;;;2.90;;
59310;SDS011;45078;51.654;21.250;2023-06-26T12:37:23;3.55;;;2.72;;
59310;SDS011;45078;51.654;21.250;2023-06-26T12:39:49;3.63;;;2.70;;
59310;SDS011;45078;51.654;21.250;2023-06-26T12:42:19;4.63;;;2.80;;
59310;SDS011;45078;51.654;21.250;2023-06-26T12:44:47;4.68;;;2.60;;
59310;SDS011;45078;51.654;21.250;2023-06-26T12:47:14;4.97;;;2.70;;
59310;SDS011;45078;51.654;21.250;2023-06-26T12:49:41;5.57;;;2.90;;
59310;SDS011;45078;51.654;21.250;2023-06-26T12:52:12;4.75;;;2.88;;
59310;SDS011;45078;51.654;21.250;2023-06-26T12:54:40;5.78;;;3.00;;
59310;SDS011;45078;51.654;21.250;2023-06-26T12:57:07;5.03;;;2.80;;
59310;SDS011;45078;51.654;21.250;2023-06-26T12:59:35;4.03;;;2.70;;
59310;SDS011;45078;51.654;21.250;2023-06-26T13:02:01;4.65;;;3.10;;
59310;SDS011;45078;51.654;21.250;2023-06-26T13:04:28;4.55;;;3.00;;
59310;SDS011;45078;51.654;21.250;2023-06-26T13:06:54;4.60;;;3.00;;
59310;SDS011;45078;51.654;21.250;2023-06-26T13:09:21;4.70;;;2.95;;
59310;SDS011;45078;51.654;21.250;2023-06-26T13:11:53;5.95;;;2.85;;
59310;SDS011;45078;51.654;21.250;2023-06-26T13:14:19;3.92;;;2.92;;
59310;SDS011;45078;51.654;21.250;2023-06-26T13:16:46;4.30;;;3.08;;
59310;SDS011;45078;51.654;21.250;2023-06-26T13:19:12;4.18;;;2.63;;
59310;SDS011;45078;51.654;21.250;2023-06-26T13:21:37;10.60;;;3.00;;
59310;SDS011;45078;51.654;21.250;2023-06-26T13:24:03;4.72;;;3.03;;
59310;SDS011;45078;51.654;21.250;2023-06-26T13:26:30;7.97;;;2.80;;
59310;SDS011;45078;51.654;21.250;2023-06-26T13:28:57;4.38;;;2.90;;
59310;SDS011;45078;51.654;21.250;2023-06-26T13:31:23;4.72;;;3.05;;
59310;SDS011;45078;51.654;21.250;2023-06-26T13:33:49;4.78;;;3.00;;
59310;SDS011;45078;51.654;21.250;2023-06-26T13:36:17;5.65;;;2.92;;
59310;SDS011;45078;51.654;21.250;2023-06-26T13:38:44;4.93;;;2.90;;
59310;SDS011;45078;51.654;21.250;2023-06-26T13:41:10;4.60;;;3.20;;
59310;SDS011;45078;51.654;21.250;2023-06-26T13:43:35;5.85;;;3.20;;
59310;SDS011;45078;51.654;21.250;2023-06-26T13:46:01;7.22;;;2.72;;
59310;SDS011;45078;51.654;21.250;2023-06-26T13:48:30;4.30;;;3.10;;
59310;SDS011;45078;51.654;21.250;2023-06-26T13:50:57;4.05;;;3.00;;
59310;SDS011;45078;51.654;21.250;2023-06-26T13:53:23;7.07;;;3.25;;
59310;SDS011;45078;51.654;21.250;2023-06-26T13:55:49;5.80;;;3.08;;
59310;SDS011;45078;51.654;21.250;2023-06-26T13:58:15;8.13;;;3.20;;
59310;SDS011;45078;51.654;21.250;2023-06-26T14:00:41;5.35;;;3.10;;
59310;SDS011;45078;51.654;21.250;2023-06-26T14:03:09;6.15;;;3.40;;
59310;SDS011;45078;51.654;21.250;2023-06-26T14:05:35;5.20;;;2.85;;
59310;SDS011;45078;51.654;21.250;2023-06-26T14:08:02;6.03;;;2.65;;
59310;SDS011;45078;51.654;21.250;2023-06-26T14:10:29;4.28;;;2.95;;
59310;SDS011;45078;51.654;21.250;2023-06-26T14:12:56;4.30;;;3.15;;
59310;SDS011;45078;51.654;21.250;2023-06-26T14:15:22;5.60;;;2.80;;
59310;SDS011;45078;51.654;21.250;2023-06-26T14:17:47;4.07;;;3.03;;
59310;SDS011;45078;51.654;21.250;2023-06-26T14:20:16;5.10;;;2.80;;
59310;SDS011;45078;51.654;21.250;2023-06-26T14:22:42;8.85;;;3.10;;
59310;SDS011;45078;51.654;21.250;2023-06-26T14:25:09;5.22;;;2.88;;
59310;SDS011;45078;51.654;21.250;2023-06-26T14:27:36;6.05;;;2.90;;
59310;SDS011;45078;51.654;21.250;2023-06-26T14:30:02;4.97;;;2.78;;
59310;SDS011;45078;51.654;21.250;2023-06-26T14:32:29;4.10;;;2.92;;
59310;SDS011;45078;51.654;21.250;2023-06-26T14:34:55;4.80;;;3.10;;
59310;SDS011;45078;51.654;21.250;2023-06-26T14:37:22;4.07;;;3.03;;
59310;SDS011;45078;51.654;21.250;2023-06-26T14:39:47;3.25;;;2.50;;
59310;SDS011;45078;51.654;21.250;2023-06-26T14:42:13;4.90;;;2.88;;
59310;SDS011;45078;51.654;21.250;2023-06-26T14:44:39;4.60;;;2.78;;
59310;SDS011;45078;51.654;21.250;2023-06-26T14:47:04;4.85;;;2.45;;